Time;durP1;ratioP1;P1;durP2;ratioP2;P2;SDS_P1;SDS_P2;PMS_P1;PMS_P2;Temp;Humidity;BMP_temperature;BMP_pressure;BME280_temperature;BME280_humidity;BME280_pressure;Samples;Min_cycle;Max_cycle;Signal;HPM_P1;HPM_P2
2023/01/04 00:00:01;;;;;;;;;;;;;;;18.65;47.32;101832.28;5151484;27;19968;-59
2023/01/04 00:02:27;;;;;;;;;;;;;;;18.66;47.35;101832.06;5151131;27;19927;-59
2023/01/04 00:04:52;;;;;;;;;;;;;;;18.66;47.29;101822.94;5133549;27;19923;-59
2023/01/04 00:07:18;;;;;;;;;;;;;;;18.66;47.54;101817.41;5151930;27;19938;-57
2023/01/04 00:09:43;;;;;;;;;;;;;;;18.65;47.48;101811.06;5152405;27;19946;-59
2023/01/04 00:12:09;;;;;;;;;;;;;;;18.65;47.32;101801.94;5157146;27;19935;-59
2023/01/04 00:14:34;;;;;;;;;;;;;;;18.65;47.59;101805.56;5171649;27;19975;-58
2023/01/04 00:17:00;;;;;;;;;;;;;;;18.66;47.32;101807.22;5130857;27;19935;-59
2023/01/04 00:19:26;;;;;;;;;;;;;;;18.65;47.35;101800.03;5145183;27;19927;-59
2023/01/04 00:21:52;;;;;;;;;;;;;;;18.66;47.30;101792.59;5152341;27;20531;-59
2023/01/04 00:24:17;;;;;;;;;;;;;;;18.66;47.33;101798.13;5151153;27;19992;-59
2023/01/04 00:26:43;;;;;;;;;;;;;;;18.66;47.60;101798.13;5152111;27;20276;-59
2023/01/04 00:29:09;;;;;;;;;;;;;;;18.66;47.32;101787.06;5151756;27;19972;-59
2023/01/04 00:31:34;;;;;;;;;;;;;;;18.66;47.13;101782.38;5152125;27;19970;-59
2023/01/04 00:34:01;;;;;;;;;;;;;;;18.65;47.52;101783.47;5151555;27;19972;-59
2023/01/04 00:36:26;;;;;;;;;;;;;;;18.65;47.61;101777.97;5151962;27;19957;-59
2023/01/04 00:39:08;;;;;;;;;;;;;;;18.65;47.26;101780.72;5133236;27;19959;-58
2023/01/04 00:41:36;;;;;;;;;;;;;;;18.65;47.57;101775.22;5151936;27;19923;-59
2023/01/04 00:44:21;;;;;;;;;;;;;;;18.65;47.36;101768.81;5122119;27;19967;-59
2023/01/04 00:46:47;;;;;;;;;;;;;;;18.65;47.44;101775.22;5150514;27;19924;-59
2023/01/04 00:49:13;;;;;;;;;;;;;;;18.66;47.59;101768.59;5151836;27;19986;-59
2023/01/04 00:51:39;;;;;;;;;;;;;;;18.65;47.32;101766.94;5133172;27;20430;-59
2023/01/04 00:54:05;;;;;;;;;;;;;;;18.65;47.53;101747.63;5151439;27;19959;-58
2023/01/04 00:56:31;;;;;;;;;;;;;;;18.64;47.57;101743.16;5132481;27;19927;-59
2023/01/04 00:58:57;;;;;;;;;;;;;;;18.66;47.41;101740.16;5132489;27;19998;-59
2023/01/04 01:01:23;;;;;;;;;;;;;;;18.65;47.67;101731.06;5151750;27;19923;-58
2023/01/04 01:03:52;;;;;;;;;;;;;;;18.66;47.30;101729.13;5151076;27;19931;-59
2023/01/04 01:06:18;;;;;;;;;;;;;;;18.65;47.33;101724.69;5136879;27;20406;-59
2023/01/04 01:08:44;;;;;;;;;;;;;;;18.65;47.53;101720.03;5130715;28;19924;-59
2023/01/04 01:11:10;;;;;;;;;;;;;;;18.65;47.36;101714.50;5130960;28;19931;-59
2023/01/04 01:13:36;;;;;;;;;;;;;;;18.66;47.31;101718.94;5165076;27;20374;-59
2023/01/04 01:16:02;;;;;;;;;;;;;;;18.65;47.52;101709.00;5126353;27;19927;-59
2023/01/04 01:18:28;;;;;;;;;;;;;;;18.66;47.33;101707.91;5130687;28;19935;-59
2023/01/04 01:20:53;;;;;;;;;;;;;;;18.66;47.64;101707.91;5141415;27;19938;-59
2023/01/04 01:23:19;;;;;;;;;;;;;;;18.66;47.57;101701.53;5151167;27;19944;-59
2023/01/04 01:25:45;;;;;;;;;;;;;;;18.65;47.58;101695.19;5140779;27;19929;-59
2023/01/04 01:28:10;;;;;;;;;;;;;;;18.65;47.43;101697.97;5134219;27;19930;-59
2023/01/04 01:30:40;;;;;;;;;;;;;;;18.66;47.62;101696.03;5150704;27;20379;-58
2023/01/04 01:33:06;;;;;;;;;;;;;;;18.65;47.41;101686.91;5150923;27;19923;-58
2023/01/04 01:35:32;;;;;;;;;;;;;;;18.65;47.59;101686.06;5142625;27;20047;-58
2023/01/04 01:37:58;;;;;;;;;;;;;;;18.65;47.33;101680.53;5112047;28;20389;-59
2023/01/04 01:40:23;;;;;;;;;;;;;;;18.64;47.57;101674.19;5130433;28;19928;-59
2023/01/04 01:42:49;;;;;;;;;;;;;;;18.66;47.53;101676.72;5130302;28;19931;-59
2023/01/04 01:45:21;;;;;;;;;;;;;;;18.65;47.61;101672.25;5135671;27;19923;-59
2023/01/04 01:47:47;;;;;;;;;;;;;;;18.65;47.27;101672.25;5151092;27;19980;-59
2023/01/04 01:50:16;;;;;;;;;;;;;;;18.65;47.31;101673.13;5151260;27;19930;-59
2023/01/04 01:52:42;;;;;;;;;;;;;;;18.65;47.58;101677.78;5151037;27;19927;-59
2023/01/04 01:55:08;;;;;;;;;;;;;;;18.64;47.62;101679.72;5150050;27;19934;-59
2023/01/04 01:57:34;;;;;;;;;;;;;;;18.66;47.41;101676.72;5132285;27;19935;-58
2023/01/04 02:00:02;;;;;;;;;;;;;;;18.65;47.39;101670.38;5131710;27;19923;-59
2023/01/04 02:02:27;;;;;;;;;;;;;;;18.65;47.17;101670.38;5158445;27;19930;-59
2023/01/04 02:04:53;;;;;;;;;;;;;;;18.65;47.41;101675.88;5164792;27;19924;-58
2023/01/04 02:07:20;;;;;;;;;;;;;;;18.65;47.27;101662.09;5129965;28;19924;-59
2023/01/04 02:09:45;;;;;;;;;;;;;;;18.65;47.50;101664.00;5111613;28;19963;-59
2023/01/04 02:12:11;;;;;;;;;;;;;;;18.65;47.57;101650.19;5130002;28;19928;-59
2023/01/04 02:14:37;;;;;;;;;;;;;;;18.65;47.28;101655.72;5129665;27;19976;-59
2023/01/04 02:17:14;;;;;;;;;;;;;;;18.64;47.25;101649.38;5129842;28;20151;-59
2023/01/04 02:19:59;;;;;;;;;;;;;;;18.65;47.53;101650.19;5129976;28;19947;-58
2023/01/04 02:22:28;;;;;;;;;;;;;;;18.65;47.57;101652.94;5124490;27;19950;-58
2023/01/04 02:25:03;;;;;;;;;;;;;;;18.65;47.51;101656.56;5146545;27;19972;-58
2023/01/04 02:27:48;;;;;;;;;;;;;;;18.64;47.59;101641.09;5129744;28;19938;-59
2023/01/04 02:30:23;;;;;;;;;;;;;;;18.65;47.54;101640.03;5114175;28;19980;-59
2023/01/04 02:32:59;;;;;;;;;;;;;;;18.64;47.39;101638.31;5129727;28;19939;-59
2023/01/04 02:35:28;;;;;;;;;;;;;;;18.65;47.38;101630.88;5137185;27;20260;-59
2023/01/04 02:37:57;;;;;;;;;;;;;;;18.65;47.19;101633.63;5150639;27;20157;-59
2023/01/04 02:40:31;;;;;;;;;;;;;;;18.64;47.52;101615.44;5154095;27;19986;-58
2023/01/04 02:45:46;;;;;;;;;;;;;;;18.64;47.38;101607.97;5127666;27;19938;-59
2023/01/04 02:50:58;;;;;;;;;;;;;;;18.65;47.19;101600.53;5138052;27;20375;-59
2023/01/04 02:53:33;;;;;;;;;;;;;;;18.64;47.19;101594.19;5153467;27;19975;-59
2023/01/04 02:58:48;;;;;;;;;;;;;;;18.65;47.16;101581.22;5189807;27;19925;-56
2023/01/04 03:07:19;;;;;;;;;;;;;;;18.64;47.40;101577.63;5100447;28;19928;-56
2023/01/04 03:09:46;;;;;;;;;;;;;;;18.64;47.42;101583.16;5126855;28;19959;-56
2023/01/04 03:12:30;;;;;;;;;;;;;;;18.64;47.27;101569.34;5108830;28;19962;-56
2023/01/04 03:14:59;;;;;;;;;;;;;;;18.64;47.33;101566.59;5130283;27;20274;-56
2023/01/04 03:17:25;;;;;;;;;;;;;;;18.65;47.39;101568.28;5129437;27;19928;-56
2023/01/04 03:19:53;;;;;;;;;;;;;;;18.64;47.24;101563.84;5147745;27;20356;-56
2023/01/04 03:36:29;;;;;;;;;;;;;;;18.65;47.04;101531.56;5131712;27;19927;-56
2023/01/04 03:50:05;;;;;;;;;;;;;;;18.64;47.19;101521.63;5111183;28;19923;-56
2023/01/04 03:52:31;;;;;;;;;;;;;;;18.63;47.03;101520.81;5126788;28;20361;-56
2023/01/04 03:54:56;;;;;;;;;;;;;;;18.63;47.30;101518.03;5129952;27;20243;-56
2023/01/04 03:57:22;;;;;;;;;;;;;;;18.65;47.36;101509.50;5128406;27;19923;-55
2023/01/04 03:59:49;;;;;;;;;;;;;;;18.63;46.99;101492.38;5146421;27;20671;-56
2023/01/04 04:02:18;;;;;;;;;;;;;;;18.64;47.12;101503.16;5128262;27;19976;-56
2023/01/04 04:10:14;;;;;;;;;;;;;;;18.63;47.16;101482.19;5116968;28;19927;-56
2023/01/04 04:12:40;;;;;;;;;;;;;;;18.64;47.31;101488.53;5132987;28;19931;-56
2023/01/04 04:15:06;;;;;;;;;;;;;;;18.64;47.17;101488.53;5132326;28;19930;-56
2023/01/04 04:17:31;;;;;;;;;;;;;;;18.63;47.27;101506.19;5132279;28;20444;-55
2023/01/04 04:19:57;;;;;;;;;;;;;;;18.63;46.98;101487.69;5132899;28;20360;-56
2023/01/04 04:22:22;;;;;;;;;;;;;;;18.63;46.96;101487.69;5132700;28;19923;-56
2023/01/04 04:24:48;;;;;;;;;;;;;;;18.63;46.99;101475.84;5131968;27;19927;-56
2023/01/04 04:27:13;;;;;;;;;;;;;;;18.63;47.29;101487.69;5131850;28;19976;-57
2023/01/04 04:29:39;;;;;;;;;;;;;;;18.63;47.44;101470.31;5131975;27;19947;-56
2023/01/04 04:32:04;;;;;;;;;;;;;;;18.63;46.99;101473.06;5132689;28;19928;-56
2023/01/04 04:34:30;;;;;;;;;;;;;;;18.63;47.26;101479.41;5132319;28;19928;-56
2023/01/04 04:36:56;;;;;;;;;;;;;;;18.63;47.17;101473.91;5132609;28;19965;-56
2023/01/04 04:39:21;;;;;;;;;;;;;;;18.64;46.98;101477.50;5132664;28;20291;-56
2023/01/04 04:41:47;;;;;;;;;;;;;;;18.63;46.98;101468.38;5132360;28;19927;-56
2023/01/04 04:44:14;;;;;;;;;;;;;;;18.64;47.25;101478.31;5115286;28;19924;-56
2023/01/04 04:46:40;;;;;;;;;;;;;;;18.63;46.96;101465.63;5113480;28;19923;-56
2023/01/04 04:49:05;;;;;;;;;;;;;;;18.63;47.03;101464.81;5113863;28;20280;-56
2023/01/04 04:51:31;;;;;;;;;;;;;;;18.62;46.99;101452.94;5132181;28;19931;-56
2023/01/04 04:53:57;;;;;;;;;;;;;;;18.63;47.19;101462.03;5131541;28;19934;-56
2023/01/04 04:56:22;;;;;;;;;;;;;;;18.62;47.23;101450.19;5131918;28;20381;-56
2023/01/04 04:58:48;;;;;;;;;;;;;;;18.63;46.94;101448.25;5131823;28;19934;-56
2023/01/04 05:01:13;;;;;;;;;;;;;;;18.62;47.24;101452.94;5113870;28;19927;-56
2023/01/04 05:03:39;;;;;;;;;;;;;;;18.62;46.93;101458.47;5132003;28;19948;-56
2023/01/04 05:06:05;;;;;;;;;;;;;;;18.64;47.05;101458.19;5131850;28;19935;-56
2023/01/04 05:08:30;;;;;;;;;;;;;;;18.63;47.17;101446.31;5132107;28;19923;-56
2023/01/04 05:10:56;;;;;;;;;;;;;;;18.62;47.09;101455.69;5132253;28;19935;-56
2023/01/04 05:13:22;;;;;;;;;;;;;;;18.63;47.10;101449.06;5132075;28;20325;-56
2023/01/04 05:15:48;;;;;;;;;;;;;;;18.63;46.99;101440.81;5113019;28;19924;-56
2023/01/04 05:18:14;;;;;;;;;;;;;;;18.63;47.11;101437.22;5113474;28;19924;-57
2023/01/04 05:20:39;;;;;;;;;;;;;;;18.64;46.98;101439.69;5111974;28;19963;-56
2023/01/04 05:23:05;;;;;;;;;;;;;;;18.63;47.08;101431.69;5131977;27;20311;-56
2023/01/04 05:25:31;;;;;;;;;;;;;;;18.62;47.04;101436.38;5131321;28;19970;-56
2023/01/04 05:27:56;;;;;;;;;;;;;;;18.63;47.29;101421.50;5118742;28;19927;-56
2023/01/04 05:30:54;;;;;;;;;;;;;;;18.63;47.24;101434.44;5131452;28;20330;-56
2023/01/04 05:33:08;;;;;;;;;;;;;;;18.63;46.96;101438.03;5116295;28;20048;-56
2023/01/04 05:35:33;;;;;;;;;;;;;;;18.63;47.23;101423.41;5112903;28;19942;-56
2023/01/04 05:37:59;;;;;;;;;;;;;;;18.63;46.97;101415.16;5131632;28;19924;-56
2023/01/04 05:40:24;;;;;;;;;;;;;;;18.63;47.17;101423.41;5131787;28;19931;-56
2023/01/04 05:42:50;;;;;;;;;;;;;;;18.62;47.25;101422.59;5126463;28;19924;-56
2023/01/04 05:45:16;;;;;;;;;;;;;;;18.62;47.03;101413.50;5112778;28;20379;-56
2023/01/04 05:47:41;;;;;;;;;;;;;;;18.63;47.00;101401.34;5131594;28;19924;-56
2023/01/04 05:50:08;;;;;;;;;;;;;;;18.63;47.15;101399.41;5113229;28;20341;-56
2023/01/04 05:52:33;;;;;;;;;;;;;;;18.62;47.24;101402.47;5112452;28;19927;-56
2023/01/04 05:54:59;;;;;;;;;;;;;;;18.63;46.97;101402.19;5112339;28;19939;-56
2023/01/04 05:57:24;;;;;;;;;;;;;;;18.62;47.24;101410.72;5112800;28;20383;-56
2023/01/04 05:59:50;;;;;;;;;;;;;;;18.63;47.08;101395.84;5130801;28;19938;-56
2023/01/04 06:02:16;;;;;;;;;;;;;;;18.62;47.24;101392.25;5131142;28;19924;-56
2023/01/04 06:04:42;;;;;;;;;;;;;;;18.62;46.98;101381.22;5130954;28;19928;-56
2023/01/04 06:07:08;;;;;;;;;;;;;;;18.62;47.24;101377.63;5112883;28;19923;-56
2023/01/04 06:09:33;;;;;;;;;;;;;;;18.63;46.91;101379.28;5131241;28;19938;-56
2023/01/04 06:11:59;;;;;;;;;;;;;;;18.63;47.06;101387.56;5131190;28;19946;-56
2023/01/04 06:14:24;;;;;;;;;;;;;;;18.62;47.06;101372.09;5131033;28;19927;-56
2023/01/04 06:16:50;;;;;;;;;;;;;;;18.62;47.19;101386.72;5130719;28;20360;-56
2023/01/04 06:19:16;;;;;;;;;;;;;;;18.63;46.94;101384.81;5131157;28;19928;-56
2023/01/04 06:21:41;;;;;;;;;;;;;;;18.63;47.01;101382.88;5130820;28;19935;-56
2023/01/04 06:24:09;;;;;;;;;;;;;;;18.62;47.17;101372.09;5130441;28;20332;-56
2023/01/04 06:26:34;;;;;;;;;;;;;;;18.63;46.89;101371.00;5111958;28;19927;-56
2023/01/04 06:29:00;;;;;;;;;;;;;;;18.63;47.14;101362.72;5130080;28;20511;-56
2023/01/04 06:31:25;;;;;;;;;;;;;;;18.63;46.97;101368.25;5130251;27;20417;-56
2023/01/04 06:33:51;;;;;;;;;;;;;;;18.62;46.93;101364.66;5130566;27;19928;-56
2023/01/04 06:36:17;;;;;;;;;;;;;;;18.63;47.25;101354.47;5130602;27;19923;-56
2023/01/04 06:38:45;;;;;;;;;;;;;;;18.62;47.25;101353.63;5130853;28;19931;-56
2023/01/04 06:41:10;;;;;;;;;;;;;;;18.62;47.06;101342.59;5130771;28;19923;-56
2023/01/04 06:43:36;;;;;;;;;;;;;;;18.62;46.94;101341.78;5130509;28;19984;-56
2023/01/04 06:46:02;;;;;;;;;;;;;;;18.63;47.00;101337.91;5130049;28;19927;-56
2023/01/04 06:48:28;;;;;;;;;;;;;;;18.62;46.93;101353.63;5130684;27;19978;-56
2023/01/04 06:50:54;;;;;;;;;;;;;;;18.63;46.96;101362.72;5130724;28;19931;-56
2023/01/04 06:53:19;;;;;;;;;;;;;;;18.62;46.89;101361.91;5130171;28;19973;-56
2023/01/04 06:55:45;;;;;;;;;;;;;;;18.62;46.96;101356.38;5130102;28;19927;-56
2023/01/04 06:58:10;;;;;;;;;;;;;;;18.62;47.00;101372.94;5129750;28;19924;-56
2023/01/04 07:00:36;;;;;;;;;;;;;;;18.62;46.94;101356.38;5130127;28;19923;-56
2023/01/04 07:03:01;;;;;;;;;;;;;;;18.62;46.95;101355.56;5130412;28;19927;-56
2023/01/04 07:05:41;;;;;;;;;;;;;;;18.62;47.07;101356.38;5129976;28;20291;-56
2023/01/04 07:08:06;;;;;;;;;;;;;;;18.62;47.03;101348.13;5130519;28;20411;-56
2023/01/04 07:10:33;;;;;;;;;;;;;;;18.62;47.00;101353.63;5130145;28;19935;-56
2023/01/04 07:12:59;;;;;;;;;;;;;;;18.62;46.96;101347.28;5130352;28;19927;-56
2023/01/04 07:15:25;;;;;;;;;;;;;;;18.62;46.90;101337.06;5130027;28;19931;-54
2023/01/04 07:18:05;;;;;;;;;;;;;;;18.62;47.04;101339.00;5130024;27;20419;-56
2023/01/04 07:20:31;;;;;;;;;;;;;;;18.62;47.15;101345.34;5111872;28;19927;-56
2023/01/04 07:22:56;;;;;;;;;;;;;;;18.62;46.89;101342.59;5130173;28;19927;-56
2023/01/04 07:25:22;;;;;;;;;;;;;;;18.62;46.94;101336.25;5129520;28;20291;-56
2023/01/04 07:27:51;;;;;;;;;;;;;;;18.63;47.21;101343.41;5130012;28;19924;-56
2023/01/04 07:30:17;;;;;;;;;;;;;;;18.62;47.15;101337.06;5129794;28;20398;-56
2023/01/04 07:32:43;;;;;;;;;;;;;;;18.62;47.26;101337.06;5129373;28;19923;-56
2023/01/04 07:35:08;;;;;;;;;;;;;;;18.61;47.25;101335.44;5129856;27;19928;-56
2023/01/04 07:37:34;;;;;;;;;;;;;;;18.61;47.17;101327.16;5130093;28;20286;-56
2023/01/04 07:39:59;;;;;;;;;;;;;;;18.62;46.94;101326.03;5130158;28;19923;-56
2023/01/04 07:42:25;;;;;;;;;;;;;;;18.62;47.24;101337.06;5137082;27;19927;-56
2023/01/04 07:44:50;;;;;;;;;;;;;;;18.62;46.89;101336.25;5150479;27;20019;-56
2023/01/04 07:47:16;;;;;;;;;;;;;;;18.62;46.94;101334.31;5133407;27;19934;-56
2023/01/04 07:49:42;;;;;;;;;;;;;;;18.62;47.00;101341.78;5133487;28;20131;-56
2023/01/04 07:55:39;;;;;;;;;;;;;;;18.63;46.97;101332.38;5132566;28;19931;-56
2023/01/04 07:58:04;;;;;;;;;;;;;;;18.61;47.09;101327.16;5132779;28;19939;-56
2023/01/04 08:00:30;;;;;;;;;;;;;;;18.63;47.11;101329.63;5133072;28;19931;-56
2023/01/04 08:02:55;;;;;;;;;;;;;;;18.62;47.22;101325.22;5132722;27;20434;-56
2023/01/04 08:05:23;;;;;;;;;;;;;;;18.62;47.00;101323.28;5132892;28;19934;-56
2023/01/04 08:07:49;;;;;;;;;;;;;;;18.62;47.24;101319.69;5132999;28;19962;-56
2023/01/04 08:10:14;;;;;;;;;;;;;;;18.62;47.04;101316.94;5133109;28;19940;-56
2023/01/04 08:12:40;;;;;;;;;;;;;;;18.62;47.30;101322.47;5133098;28;20290;-56
2023/01/04 08:15:06;;;;;;;;;;;;;;;18.63;47.12;101335.16;5132625;27;19935;-56
2023/01/04 08:17:31;;;;;;;;;;;;;;;18.62;46.94;101334.31;5133120;28;19924;-56
2023/01/04 08:19:57;;;;;;;;;;;;;;;18.62;47.25;101337.06;5132964;28;19927;-56
2023/01/04 08:22:22;;;;;;;;;;;;;;;18.62;47.00;101328.81;5133073;28;20376;-56
2023/01/04 08:24:48;;;;;;;;;;;;;;;18.62;47.10;101322.47;5131918;28;19924;-56
2023/01/04 08:27:13;;;;;;;;;;;;;;;18.62;47.27;101322.47;5132686;28;20515;-56
2023/01/04 08:29:39;;;;;;;;;;;;;;;18.62;47.12;101315.00;5132386;28;19923;-56
2023/01/04 08:32:05;;;;;;;;;;;;;;;18.63;47.17;101321.34;5132736;28;19923;-56
2023/01/04 08:34:30;;;;;;;;;;;;;;;18.62;47.26;101312.25;5131866;28;19966;-56
2023/01/04 08:36:57;;;;;;;;;;;;;;;18.62;47.28;101314.19;5131964;27;19929;-56
2023/01/04 08:39:23;;;;;;;;;;;;;;;18.62;47.01;101306.72;5132866;28;19961;-56
2023/01/04 08:41:49;;;;;;;;;;;;;;;18.62;47.26;101303.97;5126162;27;19931;-56
2023/01/04 08:44:35;;;;;;;;;;;;;;;18.62;47.29;101305.91;5137607;27;19979;-56
2023/01/04 08:47:01;;;;;;;;;;;;;;;18.62;47.00;101303.16;5132963;27;19928;-56
2023/01/04 08:49:26;;;;;;;;;;;;;;;18.63;47.14;101318.59;5132574;28;19930;-56
2023/01/04 08:51:52;;;;;;;;;;;;;;;18.62;47.10;101311.44;5132471;28;19935;-56
2023/01/04 08:54:17;;;;;;;;;;;;;;;18.62;47.06;101311.44;5131964;27;19924;-56
2023/01/04 08:56:43;;;;;;;;;;;;;;;18.62;46.98;101312.25;5132237;28;20301;-55
2023/01/04 08:59:10;;;;;;;;;;;;;;;18.62;47.09;101297.63;5113552;28;19928;-56
2023/01/04 09:01:35;;;;;;;;;;;;;;;18.61;47.07;101294.03;5113931;28;19973;-56
2023/01/04 09:04:01;;;;;;;;;;;;;;;18.62;47.01;101306.72;5132132;27;19924;-56
2023/01/04 09:06:27;;;;;;;;;;;;;;;18.62;47.00;101317.75;5132020;28;20279;-56
2023/01/04 09:08:54;;;;;;;;;;;;;;;18.63;47.25;101307.56;5131580;28;19923;-56
2023/01/04 09:11:20;;;;;;;;;;;;;;;18.62;47.35;101312.25;5132056;28;19924;-56
2023/01/04 09:13:45;;;;;;;;;;;;;;;18.62;47.18;101306.72;5132031;27;20014;-56
2023/01/04 09:16:12;;;;;;;;;;;;;;;18.61;47.12;101299.56;5131890;28;19924;-56
2023/01/04 09:18:38;;;;;;;;;;;;;;;18.63;47.00;101304.81;5113570;28;19928;-56
2023/01/04 09:21:04;;;;;;;;;;;;;;;18.62;47.30;101301.22;5113697;28;19972;-56
2023/01/04 09:23:29;;;;;;;;;;;;;;;18.63;47.11;101302.03;5113488;28;20371;-56
2023/01/04 09:25:55;;;;;;;;;;;;;;;18.61;47.39;101294.03;5113144;28;19934;-56
2023/01/04 09:28:21;;;;;;;;;;;;;;;18.62;47.20;101292.94;5131515;28;20375;-56
2023/01/04 09:30:46;;;;;;;;;;;;;;;18.62;47.12;101294.88;5131583;28;19924;-56
2023/01/04 09:33:12;;;;;;;;;;;;;;;18.61;47.04;101294.03;5131680;28;20367;-56
2023/01/04 09:35:37;;;;;;;;;;;;;;;18.62;47.04;101297.63;5130822;28;19923;-56
2023/01/04 09:38:03;;;;;;;;;;;;;;;18.62;46.96;101297.63;5131710;27;19927;-56
2023/01/04 09:40:31;;;;;;;;;;;;;;;18.61;47.07;101294.03;5131785;27;19927;-56
2023/01/04 09:42:56;;;;;;;;;;;;;;;18.62;47.40;101292.94;5093596;28;19950;-56
2023/01/04 09:45:42;;;;;;;;;;;;;;;18.62;47.18;101301.22;5104098;28;19930;-56
2023/01/04 09:48:10;;;;;;;;;;;;;;;18.63;47.15;101291.84;5131646;28;19927;-56
2023/01/04 09:50:40;;;;;;;;;;;;;;;18.62;47.04;101292.13;5113137;28;19939;-57
2023/01/04 09:53:25;;;;;;;;;;;;;;;18.62;47.22;101289.34;5131066;28;20350;-56
2023/01/04 09:55:51;;;;;;;;;;;;;;;18.62;47.32;101303.16;5115670;28;19923;-56
2023/01/04 09:58:33;;;;;;;;;;;;;;;18.62;47.04;101309.50;5131252;28;19967;-56
2023/01/04 10:01:18;;;;;;;;;;;;;;;18.62;47.35;101295.69;5131178;28;20113;-56
2023/01/04 10:03:46;;;;;;;;;;;;;;;18.62;47.03;101315.00;5115843;28;19928;-56
2023/01/04 10:06:14;;;;;;;;;;;;;;;18.62;47.11;101311.44;5130541;27;20306;-56
2023/01/04 10:08:40;;;;;;;;;;;;;;;18.62;47.07;101306.72;5131322;27;20016;-55
2023/01/04 10:11:09;;;;;;;;;;;;;;;18.62;47.11;101309.50;5131350;28;19927;-56
2023/01/04 10:13:40;;;;;;;;;;;;;;;18.63;47.12;101302.03;5123581;28;19927;-56
2023/01/04 10:16:13;;;;;;;;;;;;;;;18.62;47.38;101301.22;5122495;28;19927;-56
2023/01/04 10:18:52;;;;;;;;;;;;;;;18.63;47.34;101302.88;5130997;28;20030;-56
2023/01/04 10:21:40;;;;;;;;;;;;;;;18.62;47.18;101294.88;5101659;28;19976;-56
2023/01/04 10:24:26;;;;;;;;;;;;;;;18.63;47.38;101299.28;5130770;28;19927;-56
2023/01/04 10:26:54;;;;;;;;;;;;;;;18.62;47.39;101292.13;5115523;28;19962;-56
2023/01/04 10:29:40;;;;;;;;;;;;;;;18.62;47.33;101295.69;5130589;28;19928;-56
2023/01/04 10:32:19;;;;;;;;;;;;;;;18.62;47.35;101287.44;5115485;28;19973;-56
2023/01/04 10:34:45;;;;;;;;;;;;;;;18.63;47.42;101282.72;5112185;28;19932;-56
2023/01/04 10:37:12;;;;;;;;;;;;;;;18.62;47.23;101273.63;5119706;28;19962;-57
2023/01/04 10:39:38;;;;;;;;;;;;;;;18.62;47.14;101262.59;5129268;28;19966;-56
2023/01/04 10:42:09;;;;;;;;;;;;;;;18.62;47.07;101273.63;5130564;27;19980;-56
2023/01/04 10:47:21;;;;;;;;;;;;;;;18.63;47.28;101266.19;5189953;27;20352;-56
2023/01/04 10:50:04;;;;;;;;;;;;;;;18.62;47.15;101245.22;5170753;27;19968;-56
2023/01/04 10:52:30;;;;;;;;;;;;;;;18.62;47.30;101245.22;5170832;27;19933;-56
2023/01/04 10:54:59;;;;;;;;;;;;;;;18.62;47.16;101235.00;5189283;27;20421;-56
2023/01/04 10:57:26;;;;;;;;;;;;;;;18.63;47.42;101242.19;5170816;27;19926;-56
2023/01/04 10:59:59;;;;;;;;;;;;;;;18.62;47.20;101243.28;5189111;27;19933;-56
2023/01/04 11:02:26;;;;;;;;;;;;;;;18.63;47.49;101244.13;5185973;27;20032;-56
2023/01/04 11:04:55;;;;;;;;;;;;;;;18.62;47.42;101248.81;5168255;27;19950;-56
2023/01/04 11:07:22;;;;;;;;;;;;;;;18.63;47.19;101233.09;5168761;27;19991;-56
2023/01/04 11:09:51;;;;;;;;;;;;;;;18.62;47.35;101232.25;5149951;27;20367;-56
2023/01/04 11:12:16;;;;;;;;;;;;;;;18.63;47.09;101224.81;5149752;27;19923;-56
2023/01/04 11:14:42;;;;;;;;;;;;;;;18.62;47.18;101240.53;5151522;27;20274;-56
2023/01/04 11:17:08;;;;;;;;;;;;;;;18.62;47.19;101229.50;5168323;27;19952;-56
2023/01/04 11:19:34;;;;;;;;;;;;;;;18.63;47.32;101224.81;5168207;27;19998;-56
2023/01/04 11:22:01;;;;;;;;;;;;;;;18.62;47.16;101228.66;5167987;27;20306;-56
2023/01/04 11:24:28;;;;;;;;;;;;;;;18.62;47.27;101223.16;5167484;27;19957;-56
2023/01/04 11:27:02;;;;;;;;;;;;;;;18.62;47.12;101214.88;5168192;27;20107;-56
2023/01/04 11:29:31;;;;;;;;;;;;;;;18.62;47.35;101223.97;5167875;27;19923;-56
2023/01/04 11:32:00;;;;;;;;;;;;;;;18.63;47.21;101233.09;5168193;27;19923;-56
2023/01/04 11:34:45;;;;;;;;;;;;;;;18.63;47.44;101216.53;5167799;27;19930;-57
2023/01/04 11:37:27;;;;;;;;;;;;;;;18.61;47.31;101211.28;5131780;27;19931;-56
2023/01/04 11:40:13;;;;;;;;;;;;;;;18.62;47.15;101215.69;5148980;27;19981;-56
2023/01/04 11:42:38;;;;;;;;;;;;;;;18.62;47.18;101203.84;5170050;27;19928;-56
2023/01/04 11:45:04;;;;;;;;;;;;;;;18.62;47.30;101210.19;5180471;27;19927;-56
2023/01/04 11:47:30;;;;;;;;;;;;;;;18.63;47.45;101202.72;5147161;27;19923;-56
2023/01/04 11:49:58;;;;;;;;;;;;;;;18.63;47.38;101216.53;5147166;27;19923;-56
2023/01/04 11:52:32;;;;;;;;;;;;;;;18.63;47.46;101213.78;5147121;27;19927;-56
2023/01/04 11:55:17;;;;;;;;;;;;;;;18.61;47.13;101200.25;5146299;27;20294;-57
2023/01/04 11:57:43;;;;;;;;;;;;;;;18.62;47.45;101215.69;5123355;28;19927;-56
2023/01/04 12:00:12;;;;;;;;;;;;;;;18.62;47.41;101199.16;5153120;27;19971;-56
2023/01/04 12:02:38;;;;;;;;;;;;;;;18.62;47.27;101201.91;5135192;27;19970;-56
2023/01/04 12:05:23;;;;;;;;;;;;;;;18.62;47.47;101193.63;5131989;27;19935;-56
2023/01/04 12:07:55;;;;;;;;;;;;;;;18.63;47.25;101197.22;5133141;28;19968;-56
2023/01/04 12:10:25;;;;;;;;;;;;;;;18.63;47.36;101186.19;5133239;28;19928;-57
2023/01/04 12:12:51;;;;;;;;;;;;;;;18.63;47.32;101191.69;5133005;27;19923;-56
2023/01/04 12:15:18;;;;;;;;;;;;;;;18.62;47.52;101174.31;5119535;27;19968;-56
2023/01/04 12:17:48;;;;;;;;;;;;;;;18.62;47.49;101185.34;5153571;27;20385;-56
2023/01/04 12:20:15;;;;;;;;;;;;;;;18.62;47.49;101188.13;5134917;27;19923;-56
2023/01/04 12:22:45;;;;;;;;;;;;;;;18.63;47.43;101177.91;5153601;27;19927;-56
2023/01/04 12:25:30;;;;;;;;;;;;;;;18.62;47.52;101177.09;5152448;27;20358;-56
2023/01/04 12:27:56;;;;;;;;;;;;;;;18.63;47.53;101169.63;5137138;27;20286;-56
2023/01/04 12:30:44;;;;;;;;;;;;;;;18.63;47.27;101166.88;5153175;27;19923;-56
2023/01/04 12:33:30;;;;;;;;;;;;;;;18.63;47.49;101175.16;5138156;27;19987;-56
2023/01/04 12:35:58;;;;;;;;;;;;;;;18.63;47.51;101175.16;5137137;27;20263;-56
2023/01/04 12:38:44;;;;;;;;;;;;;;;18.63;47.46;101161.34;5153343;27;19927;-56
2023/01/04 12:41:09;;;;;;;;;;;;;;;18.62;47.46;101149.50;5145744;27;20431;-56
2023/01/04 12:43:36;;;;;;;;;;;;;;;18.63;47.41;101150.31;5153369;27;19927;-56
2023/01/04 12:49:32;;;;;;;;;;;;;;;18.64;47.58;101149.22;5105752;28;19980;-56
2023/01/04 12:54:50;;;;;;;;;;;;;;;18.62;47.47;101140.41;5189650;27;19925;-56
2023/01/04 12:59:53;;;;;;;;;;;;;;;18.61;47.55;101156.13;5189826;27;20060;-56
2023/01/04 13:02:21;;;;;;;;;;;;;;;18.62;47.50;101143.97;5186216;27;19930;-56
2023/01/04 13:04:47;;;;;;;;;;;;;;;18.62;47.58;101145.91;5167495;27;20007;-56
2023/01/04 13:07:15;;;;;;;;;;;;;;;18.63;47.50;101144.81;5148073;27;19923;-56
2023/01/04 13:09:49;;;;;;;;;;;;;;;18.62;47.36;101137.63;5129498;27;19924;-56
2023/01/04 13:12:18;;;;;;;;;;;;;;;18.62;47.59;101149.50;5129541;27;19934;-56
2023/01/04 13:14:46;;;;;;;;;;;;;;;18.62;47.25;101132.94;5144848;27;19927;-56
2023/01/04 13:17:14;;;;;;;;;;;;;;;18.62;47.56;101129.38;5147526;27;20341;-56
2023/01/04 13:19:41;;;;;;;;;;;;;;;18.63;47.38;101137.34;5129194;27;19931;-56
2023/01/04 13:22:16;;;;;;;;;;;;;;;18.63;47.58;101142.03;5147801;27;19923;-56
2023/01/04 13:24:42;;;;;;;;;;;;;;;18.62;47.34;101137.63;5128746;27;19974;-56
2023/01/04 13:27:12;;;;;;;;;;;;;;;18.63;47.51;101144.81;5128908;27;20446;-56
2023/01/04 13:29:38;;;;;;;;;;;;;;;18.62;47.28;101134.88;5147381;27;19972;-56
2023/01/04 13:32:05;;;;;;;;;;;;;;;18.62;47.32;101130.19;5129092;27;19924;-56
2023/01/04 13:34:31;;;;;;;;;;;;;;;18.62;47.34;101130.19;5146766;27;19927;-56
2023/01/04 13:37:00;;;;;;;;;;;;;;;18.63;47.59;101133.78;5128880;27;19956;-56
2023/01/04 13:39:26;;;;;;;;;;;;;;;18.63;47.59;101134.59;5147457;27;20347;-56